• Join FlightAware (Why Join?)
  • Login
  • US Flag 
03:34AM EDT


 

Airport Tracker/Info


-or-


 

Live Flight TrackerFlight Track Log ✈ SWA318 ✈ 16-Apr-2013 ✈ KPHX - KATL

Flight Track Log - Related Links

Times and Time Zones

All times are in EDT time to prevent confusion due to time zone crossing. See the SWA318 flight status page for this flight to view local times or setup timezone preferences in your user account.

Time Position Orientation Groundspeed Altitude Reporting Facility
EDT Latitude Longitude Course Direction KTS MPH feet Rate Location/Type
12:36PM 33.4167 -112.0833 248° West 221 254 3,600  Level Phoenix TRACON
12:37PM 33.4000 -112.1500 253° West 232 267 7,500 3,480 Climbing Phoenix TRACON
12:38PM 33.3903 -112.1692 239° Southwest 232 267 8,300 2,400 Climbing Albuquerque Center
12:39PM 33.3292 -112.1447 162° South 264 304 10,900 2,460 Climbing Albuquerque Center
12:40PM 33.3381 -112.0397 84° East 338 389 13,500 2,640 Climbing Albuquerque Center
12:41PM 33.3669 -111.9272 73° East 355 409 16,400 2,940 Climbing Albuquerque Center
12:42PM 33.4017 -111.7831 74° East 377 434 19,600 2,220 Climbing Albuquerque Center
12:43PM 33.4350 -111.6519 73° East 414 476 21,000 1,560 Climbing Albuquerque Center
12:44PM 33.4700 -111.5106 73° East 445 512 22,900 1,860 Climbing Albuquerque Center
12:45PM 33.5044 -111.3628 74° East 462 532 24,900 1,920 Climbing Albuquerque Center
12:46PM 33.5253 -111.1750 82° East 477 549 26,900 1,800 Climbing Albuquerque Center
12:47PM 33.5425 -111.0125 83° East 493 567 28,700 1,620 Climbing Albuquerque Center
12:48PM 33.5706 -110.8486 78° East 502 578 30,300 1,500 Climbing Albuquerque Center
12:49PM 33.6222 -110.6919 68° East 506 582 31,900 1,500 Climbing Albuquerque Center
12:50PM 33.6725 -110.5339 69° East 508 585 33,400 1,440 Climbing Albuquerque Center
12:51PM 33.7283 -110.3564 69° East 507 583 34,900 720 Climbing Albuquerque Center
12:52PM 33.7797 -110.2014 68° East 504 580 35,000  Climbing Albuquerque Center
12:53PM 33.8306 -110.0439 69° East 506 582 35,000  Level Albuquerque Center
12:54PM 33.8803 -109.8867 69° East 507 583 35,000 60 Level Albuquerque Center
12:55PM 33.9392 -109.6981 69° East 506 582 35,200 540 Climbing Albuquerque Center
12:56PM 33.9861 -109.5453 70° East 495 570 36,200 840 Climbing Albuquerque Center
12:57PM 34.0111 -109.3914 79° East 474 545 37,000 360 Climbing Albuquerque Center
12:58PM 34.0364 -109.2394 79° East 469 540 37,000  Level Albuquerque Center
12:59PM 34.0617 -109.0836 79° East 472 543 37,000  Level Albuquerque Center
01:00PM 34.0933 -108.8947 79° East 479 551 37,000  Level Albuquerque Center
01:01PM 34.1186 -108.7356 79° East 482 555 37,000  Level Albuquerque Center
01:02PM 34.1444 -108.5758 79° East 486 559 37,000  Level Albuquerque Center
01:04PM 34.1703 -108.4133 79° East 492 566 37,000  Level Albuquerque Center
01:05PM 34.1942 -108.2500 80° East 496 571 37,000 -60 Level Albuquerque Center
01:06PM 34.2103 -108.0783 83° East 497 572 36,900  Descending Albuquerque Center
01:07PM 34.2147 -107.9164 88° East 488 562 37,000  Climbing Albuquerque Center
01:08PM 34.2497 -107.7214 78° East 494 568 36,900  Descending Albuquerque Center
01:09PM 34.2739 -107.5567 80° East 497 572 37,000  Climbing Albuquerque Center
01:10PM 34.2986 -107.3917 80° East 499 574 37,000  Level Albuquerque Center
01:11PM 34.3217 -107.2406 79° East 487 560 37,000  Level Albuquerque Center
01:12PM 34.3464 -107.0811 79° East 483 556 37,000  Level Albuquerque Center
01:13PM 34.3744 -106.8844 80° East 494 568 37,000  Level Albuquerque Center
01:14PM 34.3972 -106.7206 80° East 496 571 37,000  Level Albuquerque Center
01:15PM 34.4197 -106.5611 80° East 488 562 37,000  Level Albuquerque Center
01:16PM 34.4428 -106.3997 80° East 488 562 37,000  Level Albuquerque Center
01:17PM 34.4644 -106.2408 81° East 486 559 37,000  Level Albuquerque Center
01:18PM 34.4928 -106.0425 80° East 487 560 37,000  Level Albuquerque Center
01:19PM 34.5144 -105.8800 81° East 486 559 37,000  Level Albuquerque Center
01:20PM 34.5375 -105.7181 80° East 484 557 37,000  Level Albuquerque Center
01:21PM 34.5578 -105.5550 81° East 485 558 37,000  Level Albuquerque Center
01:22PM 34.5819 -105.3906 80° East 490 564 37,000  Level Albuquerque Center
01:23PM 34.6031 -105.2239 81° East 495 570 37,000  Level Albuquerque Center
01:24PM 34.6244 -105.0578 81° East 495 570 37,000  Level Albuquerque Center
01:25PM 34.6497 -104.8642 81° East 495 570 37,000  Level Albuquerque Center
01:26PM 34.6681 -104.6953 82° East 500 575 37,000  Level Albuquerque Center
01:27PM 34.6825 -104.5275 84° East 499 574 37,000  Level Albuquerque Center
01:28PM 34.6961 -104.3569 84° East 503 579 37,000  Level Albuquerque Center
01:29PM 34.7108 -104.1861 84° East 507 583 37,000  Level Albuquerque Center
01:30PM 34.7239 -104.0142 85° East 509 586 37,000  Level Albuquerque Center
01:31PM 34.7406 -103.8136 84° East 510 587 37,000  Level Albuquerque Center
01:32PM 34.7531 -103.6386 85° East 515 593 37,000  Level Albuquerque Center
01:34PM 34.7667 -103.4656 84° East 514 592 37,000  Level Albuquerque Center
01:35PM 34.7794 -103.2914 85° East 513 590 37,000  Level Albuquerque Center
01:36PM 34.7911 -103.1183 85° East 512 589 37,000  Level Albuquerque Center
01:37PM 34.8047 -102.9431 85° East 515 593 37,000  Level Albuquerque Center
01:38PM 34.8178 -102.7406 85° East 513 590 37,000  Level Albuquerque Center
01:39PM 34.8289 -102.5736 85° East 509 586 37,000  Level Albuquerque Center
01:40PM 34.8403 -102.4028 85° East 509 586 37,000  Level Albuquerque Center
01:41PM 34.8519 -102.2311 85° East 511 588 37,000  Level Albuquerque Center
01:42PM 34.8622 -102.0614 86° East 508 585 37,000  Level Albuquerque Center
01:43PM 34.8742 -101.8614 86° East 501 577 37,000  Level Albuquerque Center
01:44PM 34.8844 -101.6967 86° East 497 572 37,000  Level Albuquerque Center
01:45PM 34.8931 -101.5322 86° East 494 568 37,000  Level Albuquerque Center
01:46PM 34.9022 -101.3689 86° East 491 565 37,000  Level Albuquerque Center
01:47PM 34.9114 -101.2078 86° East 487 560 37,000  Level Albuquerque Center
01:48PM 34.9219 -101.0158 86° East 480 552 37,000  Level Albuquerque Center
01:49PM 34.9308 -100.8564 86° East 476 548 37,000  Level Albuquerque Center
01:50PM 34.9392 -100.6967 86° East 475 547 37,000  Level Albuquerque Center
01:51PM 34.9464 -100.5372 87° East 474 545 37,000  Level Albuquerque Center
01:52PM 34.9556 -100.3711 86° East 475 547 37,000  Level Albuquerque Center
01:53PM 34.9631 -100.2097 87° East 477 549 37,000  Level Albuquerque Center
01:54PM 34.9717 -100.0503 86° East 473 544 37,000  Level Albuquerque Center
01:55PM 34.9786 -99.8900 87° East 473 544 37,000  Level Albuquerque Center
01:56PM 34.9867 -99.6967 87° East 475 547 37,000  Level Albuquerque Center
01:57PM 34.9914 -99.5575 88° East 479 551 37,000  Level Fort Worth Center
01:58PM 34.9964 -99.3931 88° East 474 545 37,000  Level Fort Worth Center
01:59PM 35.0050 -99.2308 86° East 474 545 37,000  Level Fort Worth Center
02:00PM 35.0094 -99.0689 88° East 474 545 37,000  Level Fort Worth Center
02:01PM 35.0156 -98.9042 87° East 474 545 37,000  Level Fort Worth Center
02:02PM 35.0217 -98.7419 87° East 474 545 37,000  Level Fort Worth Center
02:03PM 35.0294 -98.5772 87° East 474 545 37,000  Level Fort Worth Center
02:04PM 35.0331 -98.4203 88° East 474 545 37,000  Level Fort Worth Center
02:05PM 35.0383 -98.2606 88° East 469 540 37,000  Level Fort Worth Center
02:06PM 35.0414 -98.0983 89° East 474 545 37,000  Level Fort Worth Center
02:07PM 35.0464 -97.9358 88° East 474 545 37,000  Level Fort Worth Center
02:08PM 35.0511 -97.7686 88° East 474 545 37,000  Level Fort Worth Center
02:09PM 35.0556 -97.6039 88° East 479 551 37,000  Level Fort Worth Center
02:10PM 35.0581 -97.4211 89° East 479 551 37,000  Level Fort Worth Center
02:11PM 35.0619 -97.2589 88° East 479 551 37,000  Level Fort Worth Center
02:12PM 35.0658 -97.0914 88° East 484 557 37,000  Level Fort Worth Center
02:13PM 35.0717 -96.9239 88° East 484 557 37,000  Level Fort Worth Center
02:14PM 35.0731 -96.7617 89° East 484 557 37,000  Level Fort Worth Center
02:15PM 35.0761 -96.5967 89° East 479 551 37,000  Level Fort Worth Center
02:16PM 35.0814 -96.4367 88° East 479 551 37,000  Level Fort Worth Center
02:17PM 35.0819 -96.2719 90° East 479 551 37,000  Level Fort Worth Center
02:18PM 35.0844 -96.1094 89° East 479 551 37,000  Level Fort Worth Center
02:19PM 35.0869 -95.9419 89° East 479 551 37,000  Level Fort Worth Center
02:21PM 35.0928 -95.6128 89° East 481 554 37,000  Level Memphis Center
02:22PM 35.0933 -95.4478 90° East 481 554 37,000  Level Memphis Center
02:23PM 35.0958 -95.2831 89° East 481 554 37,000  Level Memphis Center
02:24PM 35.0961 -95.1131 90° East 481 554 37,000  Level Memphis Center
02:25PM 35.0981 -94.9483 89° East 481 554 37,000  Level Memphis Center
02:26PM 35.0978 -94.7833 90° East 481 554 37,000  Level Memphis Center
02:27PM 35.0950 -94.6283 91° East 486 559 37,000  Level Memphis Center
02:28PM 35.0983 -94.4611 89° East 492 566 37,000  Level Memphis Center
02:29PM 35.0961 -94.2731 91° East 502 578 37,000  Level Memphis Center
02:30PM 35.0992 -94.1056 89° East 496 571 37,000  Level Memphis Center
02:31PM 35.1019 -93.9408 89° East 496 571 37,000  Level Memphis Center
02:32PM 35.0942 -93.7706 93° East 496 571 37,000  Level Memphis Center
02:33PM 35.0944 -93.6031 90° East 496 571 37,000  Level Memphis Center
02:34PM 35.0925 -93.4328 91° East 496 571 37,000  Level Memphis Center
02:35PM 35.0925 -93.2653 90° East 496 571 37,000  Level Memphis Center
02:36PM 35.0881 -93.0953 92° East 496 571 37,000  Level Memphis Center
02:37PM 35.0872 -92.9278 90° East 496 571 37,000  Level Memphis Center
02:38PM 35.0844 -92.7550 91° East 496 571 37,000  Level Memphis Center
02:39PM 35.0836 -92.5850 90° East 496 571 37,000  Level Memphis Center
02:40PM 35.0822 -92.4150 91° East 496 571 37,000  Level Memphis Center
02:41PM 35.0786 -92.2475 91° East 496 571 37,000  Level Memphis Center
02:42PM 35.0728 -92.0825 92° East 496 571 37,000  Level Memphis Center
02:43PM 35.0708 -91.9125 91° East 496 571 37,000  Level Memphis Center
02:44PM 35.0686 -91.7397 91° East 496 571 37,000  Level Memphis Center
02:45PM 35.0619 -91.5672 93° East 496 571 37,000  Level Memphis Center
02:46PM 35.0594 -91.3997 91° East 496 571 37,000  Level Memphis Center
02:47PM 35.0564 -91.2347 91° East 489 563 37,000  Level Memphis Center
02:48PM 35.0514 -91.0672 92° East 489 563 37,000  Level Memphis Center
02:49PM 35.0481 -90.8975 91° East 494 568 37,000  Level Memphis Center
02:50PM 35.0444 -90.7300 91° East 501 577 37,000  Level Memphis Center
02:51PM 35.0364 -90.5600 93° East 494 568 37,000  Level Memphis Center
02:52PM 35.0325 -90.4103 92° East 494 568 37,000  Level Memphis Center
02:53PM 35.0261 -90.2456 93° East 494 568 37,000  Level Memphis Center
02:54PM 35.0236 -90.0781 91° East 494 568 37,000  Level Memphis Center
02:55PM 35.0108 -89.9158 95° East 494 568 37,000  Level Memphis Center
02:56PM 34.9847 -89.7286 100° East 499 574 37,000  Level Memphis Center
02:57PM 34.9589 -89.5589 100° East 508 585 37,000  Level Memphis Center
02:58PM 34.9306 -89.3969 102° East 495 570 37,000  Level Memphis Center
02:59PM 34.9042 -89.2278 101° East 495 570 37,000  Level Memphis Center
03:00PM 34.8794 -89.0611 100° East 500 575 37,000  Level Memphis Center
03:01PM 34.8550 -88.9119 101° East 500 575 37,000  Level Memphis Center
03:02PM 34.8319 -88.7431 99° East 506 582 37,000  Level Memphis Center
03:03PM 34.8047 -88.5739 101° East 506 582 37,000  Level Memphis Center
03:04PM 34.7772 -88.4178 102° East 484 557 37,000 -180 Level Memphis Center
03:05PM 34.7514 -88.2492 101° East 490 564 36,700 -660 Descending Memphis Center
03:06PM 34.7233 -88.0731 101° East 511 588 35,700 -900 Descending Memphis Center
03:07PM 34.6950 -87.8944 101° East 506 582 35,000 -840 Descending Memphis Center
03:08PM 34.6689 -87.7386 101° East 487 560 34,100 -960 Descending Memphis Center
03:09PM 34.6444 -87.5778 100° East 476 548 33,100 -360 Descending Memphis Center
03:11PM 34.5817 -87.2253 102° East 483 556 33,000 -60 Descending Atlanta Center
03:12PM 34.5503 -87.0628 103° East 489 563 33,000  Level Atlanta Center
03:13PM 34.5186 -86.8978 103° East 489 563 33,000 -420 Level Atlanta Center
03:14PM 34.4869 -86.7378 103° East 489 563 32,200 -900 Descending Atlanta Center
03:15PM 34.4547 -86.5731 103° East 489 563 31,200 -1,020 Descending Atlanta Center
03:16PM 34.4225 -86.4108 103° East 489 563 30,200 -960 Descending Atlanta Center
03:17PM 34.3922 -86.2464 103° East 489 563 29,300 -1,200 Descending Atlanta Center
03:18PM 34.3597 -86.0844 104° East 489 563 27,800 -1,920 Descending Atlanta Center
03:19PM 34.3286 -85.9303 104° East 484 557 25,500 -2,340 Descending Atlanta Center
03:20PM 34.2994 -85.7839 104° East 456 525 23,200 -2,100 Descending Atlanta Center
03:21PM 34.2722 -85.6525 104° East 445 512 21,400 -2,100 Descending Atlanta Center
03:22PM 34.2447 -85.5114 103° East 440 506 19,100 -1,980 Descending Atlanta Center
03:23PM 34.2169 -85.3703 103° East 434 499 17,500 -1,920 Descending Atlanta Center
03:24PM 34.1872 -85.2367 105° East 420 483 15,300 -2,100 Descending Atlanta Center
03:25PM 34.1528 -85.1131 109° East 405 466 13,400 -1,200 Descending Atlanta Center
03:26PM 34.0889 -85.0269 132° Southeast 364 419 13,000 -600 Descending Atlanta Center
03:27PM 34.0142 -84.9636 145° Southeast 314 361 12,200 -1,200 Descending Atlanta Center
03:28PM 33.9308 -84.9375 165° South 300 345 10,700 -1,500 Descending Atlanta Center
03:29PM 33.8494 -84.9292 175° South 300 345 9,200 -900 Descending Atlanta Center
03:30PM 33.7703 -84.9183 174° South 300 345 8,900 -900 Descending Atlanta Center
03:31PM 33.6931 -84.8978 168° South 289 333 7,400 -1,020 Descending Atlanta Center
03:32PM 33.6394 -84.8347 136° Southeast 269 310 6,900 -780 Descending Atlanta Center
03:33PM 33.6272 -84.7447 99° East 256 295 5,900 -1,260 Descending Atlanta Center
03:34PM 33.6319 -84.6575 86° East 246 283 4,400 -1,620 Descending Atlanta Center
03:35PM 33.6333 -84.5667 89° East 235 270 2,700 -1,080 Descending Atlanta TRACON
03:36PM 33.6333 -84.5167 90° East 147 169 2,200 -720 Descending Atlanta TRACON
03:37PM 33.6333 -84.4667 90° East 143 165 1,300 -900 Descending Atlanta TRACON
03:39PM 33.6367 -84.4279 90° East  Level Estimated
03:46PM 33.6367 -84.4279 90° East  Level Estimated
03:47PM 33.6367 -84.4279 90° East  Level Estimated